PUA2603 SUMU-SABE
Flight info
| Callsign | PUA2603 |
|---|---|
| Flight time | 0h 36m |
| Altitude | 22000 |
| Route | DAGUS DCT UGIMI UGIMI8Q |
| Aircraft | A20N/M-SDE2E3FGHIRWXY/LB1 |
Departure
| Time | 2026-04-21 15:41 |
|---|---|
| Airport | Carrasco General Cesáreo L. Berisso International Airport (SUMU) |
Arrival
| Time | 2026-04-21 16:17 |
|---|---|
| Airport | Aeroparque Jorge Newbery (SABE) |
| Time | Latitude | Longitude | Altitude | Speed | Heading |
|---|---|---|---|---|---|
| 2026-04-21 15:17 | -34.83653 | -56.01857 | 75 ft | 0 kts | 143° |
| 2026-04-21 15:31 | -34.83648 | -56.01862 | 75 ft | 2 kts | 144° |
| 2026-04-21 15:32 | -34.83636 | -56.01873 | 75 ft | 2 kts | 143° |
| 2026-04-21 15:32 | -34.83624 | -56.01884 | 75 ft | 2 kts | 143° |
| 2026-04-21 15:32 | -34.83612 | -56.01895 | 76 ft | 2 kts | 143° |
| 2026-04-21 15:32 | -34.83599 | -56.01904 | 76 ft | 2 kts | 172° |
| 2026-04-21 15:33 | -34.83584 | -56.01902 | 76 ft | 2 kts | 207° |
| 2026-04-21 15:33 | -34.83576 | -56.01895 | 77 ft | 0 kts | 231° |
| 2026-04-21 15:33 | -34.83572 | -56.01888 | 77 ft | 0 kts | 234° |
| 2026-04-21 15:35 | -34.83575 | -56.01893 | 77 ft | 3 kts | 234° |
| 2026-04-21 15:35 | -34.83603 | -56.01940 | 76 ft | 8 kts | 234° |
| 2026-04-21 15:35 | -34.83642 | -56.02006 | 75 ft | 10 kts | 234° |
| 2026-04-21 15:36 | -34.83690 | -56.02086 | 74 ft | 12 kts | 233° |
| 2026-04-21 15:36 | -34.83749 | -56.02182 | 71 ft | 15 kts | 233° |
| 2026-04-21 15:36 | -34.83846 | -56.02242 | 68 ft | 17 kts | 186° |
| 2026-04-21 15:36 | -34.83944 | -56.02282 | 64 ft | 7 kts | 279° |
| 2026-04-21 15:37 | -34.83942 | -56.02338 | 64 ft | 7 kts | 269° |
| 2026-04-21 15:37 | -34.83943 | -56.02408 | 64 ft | 9 kts | 269° |
| 2026-04-21 15:37 | -34.83944 | -56.02491 | 64 ft | 10 kts | 269° |
| 2026-04-21 15:37 | -34.83945 | -56.02587 | 64 ft | 12 kts | 270° |
| 2026-04-21 15:38 | -34.83964 | -56.02690 | 63 ft | 13 kts | 246° |
| 2026-04-21 15:38 | -34.84007 | -56.02805 | 61 ft | 15 kts | 246° |
| 2026-04-21 15:38 | -34.84009 | -56.02918 | 61 ft | 13 kts | 262° |
| 2026-04-21 15:38 | -34.84011 | -56.03032 | 61 ft | 14 kts | 267° |
| 2026-04-21 15:39 | -34.84048 | -56.03159 | 57 ft | 17 kts | 242° |
| 2026-04-21 15:39 | -34.84107 | -56.03291 | 55 ft | 18 kts | 240° |
| 2026-04-21 15:39 | -34.84175 | -56.03440 | 52 ft | 20 kts | 241° |
| 2026-04-21 15:39 | -34.84244 | -56.03601 | 48 ft | 22 kts | 253° |
| 2026-04-21 15:40 | -34.84161 | -56.03618 | 50 ft | 21 kts | 53° |
| 2026-04-21 15:40 | -34.84010 | -56.03365 | 58 ft | 65 kts | 53° |
| 2026-04-21 15:40 | -34.83603 | -56.02696 | 72 ft | 129 kts | 54° |
| 2026-04-21 15:40 | -34.82963 | -56.01656 | 176 ft | 171 kts | 54° |
| 2026-04-21 15:41 | -34.82261 | -56.00502 | 854 ft | 169 kts | 53° |
| 2026-04-21 15:41 | -34.81572 | -55.99374 | 1644 ft | 166 kts | 51° |
| 2026-04-21 15:41 | -34.81132 | -55.98081 | 2227 ft | 180 kts | 86° |
| 2026-04-21 15:41 | -34.81636 | -55.96610 | 2612 ft | 210 kts | 131° |
| 2026-04-21 15:42 | -34.83024 | -55.95842 | 2966 ft | 237 kts | 176° |
| 2026-04-21 15:42 | -34.84691 | -55.96341 | 3359 ft | 257 kts | 212° |
| 2026-04-21 15:42 | -34.86178 | -55.97641 | 3887 ft | 273 kts | 220° |
| 2026-04-21 15:42 | -34.87696 | -55.99113 | 4589 ft | 282 kts | 220° |
| 2026-04-21 15:43 | -34.89244 | -56.00535 | 5489 ft | 283 kts | 218° |
| 2026-04-21 15:43 | -34.90858 | -56.01924 | 6404 ft | 284 kts | 217° |
| 2026-04-21 15:43 | -34.92484 | -56.03273 | 7244 ft | 287 kts | 216° |
| 2026-04-21 15:43 | -34.94156 | -56.04631 | 8089 ft | 290 kts | 216° |
| 2026-04-21 15:44 | -34.95830 | -56.05977 | 8903 ft | 292 kts | 216° |
| 2026-04-21 15:44 | -34.97536 | -56.07346 | 9701 ft | 295 kts | 216° |
| 2026-04-21 15:44 | -34.99233 | -56.08708 | 10489 ft | 297 kts | 216° |
| 2026-04-21 15:44 | -35.00983 | -56.10119 | 10961 ft | 311 kts | 218° |
| 2026-04-21 15:45 | -35.02566 | -56.11965 | 11277 ft | 322 kts | 239° |
| 2026-04-21 15:45 | -35.03472 | -56.14505 | 11590 ft | 333 kts | 261° |
| 2026-04-21 15:45 | -35.03543 | -56.17365 | 11892 ft | 345 kts | 277° |
| 2026-04-21 15:45 | -35.03302 | -56.20290 | 12295 ft | 357 kts | 277° |
| 2026-04-21 15:46 | -35.03061 | -56.23341 | 12976 ft | 360 kts | 277° |
| 2026-04-21 15:46 | -35.02832 | -56.26370 | 13615 ft | 364 kts | 277° |
| 2026-04-21 15:46 | -35.02604 | -56.29456 | 14157 ft | 371 kts | 276° |
| 2026-04-21 15:46 | -35.02376 | -56.32589 | 14777 ft | 374 kts | 276° |
| 2026-04-21 15:47 | -35.02149 | -56.35748 | 15454 ft | 376 kts | 276° |
| 2026-04-21 15:47 | -35.01923 | -56.38898 | 16086 ft | 378 kts | 276° |
| 2026-04-21 15:47 | -35.01692 | -56.42105 | 16710 ft | 380 kts | 276° |
| 2026-04-21 15:47 | -35.01462 | -56.45290 | 17299 ft | 382 kts | 276° |
| 2026-04-21 15:48 | -35.01227 | -56.48532 | 17877 ft | 384 kts | 277° |
| 2026-04-21 15:48 | -35.00992 | -56.51754 | 18445 ft | 386 kts | 277° |
| 2026-04-21 15:48 | -35.00754 | -56.55017 | 19035 ft | 387 kts | 277° |
| 2026-04-21 15:48 | -35.00514 | -56.58291 | 19603 ft | 388 kts | 276° |
| 2026-04-21 15:49 | -35.00273 | -56.61574 | 20157 ft | 389 kts | 277° |
| 2026-04-21 15:49 | -35.00029 | -56.64875 | 20672 ft | 391 kts | 276° |
| 2026-04-21 15:49 | -34.99788 | -56.68133 | 21207 ft | 393 kts | 277° |
| 2026-04-21 15:49 | -34.99541 | -56.71469 | 21721 ft | 395 kts | 277° |
| 2026-04-21 15:50 | -34.99296 | -56.74767 | 22005 ft | 395 kts | 277° |
| 2026-04-21 15:50 | -34.99047 | -56.78094 | 22030 ft | 395 kts | 277° |
| 2026-04-21 15:50 | -34.98794 | -56.81457 | 22031 ft | 394 kts | 277° |
| 2026-04-21 15:50 | -34.98547 | -56.84737 | 22028 ft | 394 kts | 277° |
| 2026-04-21 15:51 | -34.98339 | -56.88089 | 22026 ft | 394 kts | 275° |
| 2026-04-21 15:51 | -34.98264 | -56.91410 | 22031 ft | 395 kts | 273° |
| 2026-04-21 15:51 | -34.98249 | -56.94755 | 22032 ft | 395 kts | 272° |
| 2026-04-21 15:51 | -34.98237 | -56.98112 | 22030 ft | 395 kts | 272° |
| 2026-04-21 15:52 | -34.98225 | -57.01414 | 22030 ft | 395 kts | 273° |
| 2026-04-21 15:52 | -34.98213 | -57.04765 | 22027 ft | 395 kts | 273° |
| 2026-04-21 15:52 | -34.98204 | -57.07026 | 22025 ft | 395 kts | 272° |
| 2026-04-21 15:52 | -34.98184 | -57.11454 | 22023 ft | 395 kts | 273° |
| 2026-04-21 15:53 | -34.98169 | -57.14803 | 22024 ft | 395 kts | 272° |
| 2026-04-21 15:53 | -34.98151 | -57.18119 | 22023 ft | 394 kts | 272° |
| 2026-04-21 15:53 | -34.98135 | -57.21458 | 22023 ft | 394 kts | 273° |
| 2026-04-21 15:53 | -34.98116 | -57.24806 | 22024 ft | 394 kts | 272° |
| 2026-04-21 15:54 | -34.98097 | -57.28148 | 22023 ft | 395 kts | 273° |
| 2026-04-21 15:54 | -34.98077 | -57.31473 | 22021 ft | 395 kts | 272° |
| 2026-04-21 15:54 | -34.98055 | -57.34790 | 22018 ft | 395 kts | 272° |
| 2026-04-21 15:54 | -34.98033 | -57.38134 | 22020 ft | 395 kts | 273° |
| 2026-04-21 15:55 | -34.98012 | -57.41481 | 22019 ft | 395 kts | 273° |
| 2026-04-21 15:55 | -34.97988 | -57.44797 | 22015 ft | 394 kts | 272° |
| 2026-04-21 15:55 | -34.97963 | -57.48174 | 22012 ft | 394 kts | 273° |
| 2026-04-21 15:55 | -34.97938 | -57.51490 | 22010 ft | 394 kts | 273° |
| 2026-04-21 15:56 | -34.97911 | -57.54842 | 22007 ft | 393 kts | 273° |
| 2026-04-21 15:56 | -34.97884 | -57.58165 | 22009 ft | 394 kts | 273° |
| 2026-04-21 15:56 | -34.97856 | -57.61502 | 22014 ft | 393 kts | 273° |
| 2026-04-21 15:56 | -34.97826 | -57.64816 | 22013 ft | 393 kts | 273° |
| 2026-04-21 15:57 | -34.97796 | -57.68169 | 22016 ft | 393 kts | 274° |
| 2026-04-21 15:57 | -34.97765 | -57.71466 | 22015 ft | 393 kts | 274° |
| 2026-04-21 15:57 | -34.97733 | -57.74805 | 22014 ft | 392 kts | 274° |
| 2026-04-21 15:57 | -34.97700 | -57.78122 | 22017 ft | 392 kts | 273° |
| 2026-04-21 15:58 | -34.97667 | -57.81445 | 22018 ft | 392 kts | 274° |
| 2026-04-21 15:58 | -34.97628 | -57.84739 | 22016 ft | 392 kts | 274° |
| 2026-04-21 15:58 | -34.97444 | -57.88026 | 22019 ft | 390 kts | 278° |
| 2026-04-21 15:58 | -34.97047 | -57.91301 | 22017 ft | 389 kts | 282° |
| 2026-04-21 15:59 | -34.96670 | -57.93450 | 22015 ft | 389 kts | 285° |
| 2026-04-21 15:59 | -34.95721 | -57.97665 | 22018 ft | 388 kts | 287° |
| 2026-04-21 15:59 | -34.94977 | -58.00836 | 22001 ft | 388 kts | 287° |
| 2026-04-21 15:59 | -34.94233 | -58.03981 | 21735 ft | 387 kts | 287° |
| 2026-04-21 16:00 | -34.93484 | -58.07146 | 21416 ft | 386 kts | 287° |
| 2026-04-21 16:00 | -34.92742 | -58.10274 | 21053 ft | 384 kts | 287° |
| 2026-04-21 16:00 | -34.92013 | -58.13346 | 20591 ft | 382 kts | 287° |
| 2026-04-21 16:00 | -34.91271 | -58.16472 | 20084 ft | 379 kts | 287° |
| 2026-04-21 16:01 | -34.90554 | -58.19492 | 19566 ft | 375 kts | 287° |
| 2026-04-21 16:01 | -34.89822 | -58.22564 | 19054 ft | 372 kts | 288° |
| 2026-04-21 16:01 | -34.89114 | -58.25541 | 18513 ft | 369 kts | 288° |
| 2026-04-21 16:01 | -34.88404 | -58.28519 | 17945 ft | 367 kts | 288° |
| 2026-04-21 16:02 | -34.87694 | -58.31490 | 17394 ft | 365 kts | 288° |
| 2026-04-21 16:02 | -34.86991 | -58.34428 | 16869 ft | 362 kts | 288° |
| 2026-04-21 16:02 | -34.86289 | -58.37361 | 16357 ft | 359 kts | 288° |
| 2026-04-21 16:02 | -34.85597 | -58.40247 | 15851 ft | 356 kts | 288° |
| 2026-04-21 16:03 | -34.84900 | -58.43152 | 15327 ft | 355 kts | 288° |
| 2026-04-21 16:03 | -34.84216 | -58.46000 | 14833 ft | 353 kts | 288° |
| 2026-04-21 16:03 | -34.83525 | -58.48871 | 14334 ft | 351 kts | 288° |
| 2026-04-21 16:03 | -34.82721 | -58.51620 | 13824 ft | 347 kts | 297° |
| 2026-04-21 16:04 | -34.81429 | -58.54104 | 13312 ft | 344 kts | 309° |
| 2026-04-21 16:04 | -34.79732 | -58.56174 | 12791 ft | 344 kts | 319° |
| 2026-04-21 16:04 | -34.77886 | -58.58002 | 12255 ft | 343 kts | 320° |
| 2026-04-21 16:04 | -34.76026 | -58.59809 | 11720 ft | 343 kts | 321° |
| 2026-04-21 16:05 | -34.74147 | -58.61632 | 11266 ft | 338 kts | 320° |
| 2026-04-21 16:05 | -34.72331 | -58.63399 | 10986 ft | 328 kts | 320° |
| 2026-04-21 16:05 | -34.70583 | -58.65104 | 10815 ft | 315 kts | 321° |
| 2026-04-21 16:05 | -34.68894 | -58.66753 | 10640 ft | 303 kts | 321° |
| 2026-04-21 16:06 | -34.67284 | -58.68324 | 10473 ft | 292 kts | 321° |
| 2026-04-21 16:06 | -34.65732 | -58.69841 | 10322 ft | 281 kts | 321° |
| 2026-04-21 16:06 | -34.64238 | -58.71299 | 10186 ft | 269 kts | 321° |
| 2026-04-21 16:06 | -34.62815 | -58.72687 | 10062 ft | 259 kts | 321° |
| 2026-04-21 16:07 | -34.61405 | -58.74061 | 9750 ft | 258 kts | 321° |
| 2026-04-21 16:07 | -34.60012 | -58.75417 | 9389 ft | 258 kts | 321° |
| 2026-04-21 16:07 | -34.58612 | -58.76782 | 9040 ft | 258 kts | 321° |
| 2026-04-21 16:07 | -34.57201 | -58.78109 | 8696 ft | 257 kts | 328° |
| 2026-04-21 16:08 | -34.53725 | -58.78823 | 8025 ft | 260 kts | 3° |
| 2026-04-21 16:08 | -34.51942 | -58.78596 | 7705 ft | 259 kts | 4° |
| 2026-04-21 16:08 | -34.50134 | -58.78363 | 7379 ft | 258 kts | 4° |
| 2026-04-21 16:09 | -34.48357 | -58.78140 | 7063 ft | 257 kts | 4° |
| 2026-04-21 16:09 | -34.46577 | -58.77922 | 6747 ft | 256 kts | 4° |
| 2026-04-21 16:09 | -34.44816 | -58.77711 | 6438 ft | 255 kts | 4° |
| 2026-04-21 16:09 | -34.43058 | -58.77500 | 6131 ft | 253 kts | 4° |
| 2026-04-21 16:10 | -34.41293 | -58.77290 | 5815 ft | 252 kts | 4° |
| 2026-04-21 16:10 | -34.39536 | -58.77082 | 5511 ft | 251 kts | 4° |
| 2026-04-21 16:10 | -34.37837 | -58.76667 | 5166 ft | 253 kts | 25° |
| 2026-04-21 16:10 | -34.36565 | -58.75263 | 4977 ft | 250 kts | 59° |
| 2026-04-21 16:11 | -34.36078 | -58.73301 | 4874 ft | 244 kts | 88° |
| 2026-04-21 16:11 | -34.36448 | -58.71326 | 4646 ft | 242 kts | 118° |
| 2026-04-21 16:11 | -34.37511 | -58.69750 | 4438 ft | 241 kts | 134° |
| 2026-04-21 16:11 | -34.38713 | -58.68333 | 4221 ft | 241 kts | 135° |
| 2026-04-21 16:12 | -34.39513 | -58.67390 | 4072 ft | 238 kts | 134° |
| 2026-04-21 16:12 | -34.40960 | -58.65649 | 3813 ft | 232 kts | 133° |
| 2026-04-21 16:12 | -34.42081 | -58.64272 | 3613 ft | 226 kts | 133° |
| 2026-04-21 16:12 | -34.43208 | -58.62997 | 3425 ft | 221 kts | 140° |
| 2026-04-21 16:13 | -34.44360 | -58.61779 | 3262 ft | 214 kts | 133° |
| 2026-04-21 16:13 | -34.45328 | -58.60445 | 3128 ft | 213 kts | 127° |
| 2026-04-21 16:13 | -34.46214 | -58.59013 | 2997 ft | 212 kts | 124° |
| 2026-04-21 16:13 | -34.47045 | -58.57556 | 2930 ft | 203 kts | 122° |
| 2026-04-21 16:14 | -34.47813 | -58.56170 | 2661 ft | 199 kts | 121° |
| 2026-04-21 16:14 | -34.48573 | -58.54789 | 2372 ft | 195 kts | 122° |
| 2026-04-21 16:14 | -34.49298 | -58.53481 | 2094 ft | 182 kts | 121° |
| 2026-04-21 16:14 | -34.49981 | -58.52252 | 1863 ft | 166 kts | 121° |
| 2026-04-21 16:15 | -34.50602 | -58.51138 | 1638 ft | 154 kts | 121° |
| 2026-04-21 16:15 | -34.51170 | -58.50115 | 1438 ft | 142 kts | 121° |
| 2026-04-21 16:15 | -34.51724 | -58.49118 | 1271 ft | 141 kts | 121° |
| 2026-04-21 16:15 | -34.52267 | -58.48140 | 1101 ft | 140 kts | 121° |
| 2026-04-21 16:16 | -34.52817 | -58.47153 | 925 ft | 140 kts | 122° |
| 2026-04-21 16:16 | -34.53357 | -58.46184 | 747 ft | 139 kts | 122° |
| 2026-04-21 16:16 | -34.53899 | -58.45212 | 561 ft | 139 kts | 122° |
| 2026-04-21 16:16 | -34.54439 | -58.44243 | 374 ft | 138 kts | 122° |
| 2026-04-21 16:17 | -34.54979 | -58.43280 | 199 ft | 138 kts | 123° |
| 2026-04-21 16:17 | -34.55514 | -58.42320 | 51 ft | 137 kts | 122° |
| 2026-04-21 16:17 | -34.56009 | -58.41421 | 32 ft | 111 kts | 122° |
| 2026-04-21 16:17 | -34.56274 | -58.40946 | 32 ft | 33 kts | 125° |
| 2026-04-21 16:18 | -34.56397 | -58.40720 | 30 ft | 25 kts | 118° |
| 2026-04-21 16:18 | -34.56336 | -58.40674 | 28 ft | 14 kts | 322° |
| 2026-04-21 16:18 | -34.56260 | -58.40762 | 29 ft | 15 kts | 315° |
| 2026-04-21 16:18 | -34.56186 | -58.40852 | 29 ft | 15 kts | 307° |
| 2026-04-21 16:19 | -34.56130 | -58.40956 | 30 ft | 14 kts | 301° |
| 2026-04-21 16:19 | -34.56072 | -58.41058 | 31 ft | 14 kts | 307° |
| 2026-04-21 16:19 | -34.56011 | -58.41155 | 31 ft | 14 kts | 308° |
| 2026-04-21 16:19 | -34.55948 | -58.41256 | 30 ft | 14 kts | 307° |
| 2026-04-21 16:20 | -34.55883 | -58.41293 | 29 ft | 10 kts | 27° |
| 2026-04-21 16:20 | -34.55827 | -58.41301 | 28 ft | 8 kts | 295° |
| 2026-04-21 16:20 | -34.55794 | -58.41367 | 28 ft | 9 kts | 305° |
| 2026-04-21 16:20 | -34.55754 | -58.41436 | 28 ft | 10 kts | 304° |
| 2026-04-21 16:21 | -34.55716 | -58.41495 | 28 ft | 6 kts | 349° |
| 2026-04-21 16:21 | -34.55690 | -58.41488 | 28 ft | 4 kts | 17° |
| 2026-04-21 16:21 | -34.55677 | -58.41484 | 28 ft | 0 kts | 14° |
| 2026-04-21 16:21 | -34.55676 | -58.41483 | 28 ft | 0 kts | 14° |